createdAt,value
2022-09-21T00:01:41.126Z,78.24
2022-09-21T00:04:09.563Z,78.73
2022-09-21T00:06:38.518Z,78.39
2022-09-21T00:09:08.294Z,78.83
2022-09-21T00:11:37.294Z,78.88
2022-09-21T00:14:08.099Z,79.13
2022-09-21T00:16:38.228Z,79.11
2022-09-21T00:19:07.829Z,79.16
2022-09-21T00:21:38.194Z,78.96
2022-09-21T00:24:07.358Z,79.34
2022-09-21T00:26:35.928Z,79.41
2022-09-21T00:29:05.231Z,79.00
2022-09-21T00:31:34.001Z,79.48
2022-09-21T00:34:07.651Z,79.21
2022-09-21T00:36:36.103Z,78.95
2022-09-21T00:39:04.842Z,78.99
2022-09-21T00:41:35.340Z,79.27
2022-09-21T00:44:30.203Z,79.09
2022-09-21T00:47:03.180Z,79.04
2022-09-21T00:49:33.997Z,78.89
2022-09-21T00:52:05.451Z,79.20
2022-09-21T00:54:39.369Z,79.37
2022-09-21T00:57:08.669Z,79.67
2022-09-21T00:59:39.508Z,79.34
2022-09-21T01:02:08.470Z,79.66
2022-09-21T01:04:39.587Z,79.40
2022-09-21T01:07:12.908Z,79.72
2022-09-21T01:09:43.555Z,80.02
2022-09-21T01:12:27.615Z,80.12
2022-09-21T01:15:09.185Z,79.37
2022-09-21T01:17:46.367Z,79.41
2022-09-21T01:21:03.345Z,79.88
2022-09-21T01:23:46.812Z,79.56
2022-09-21T01:26:26.208Z,79.34
2022-09-21T01:29:13.631Z,79.77
2022-09-21T01:31:47.876Z,80.22
2022-09-21T01:34:32.093Z,79.67
2022-09-21T01:37:06.618Z,79.63
2022-09-21T01:39:37.077Z,79.48
2022-09-21T01:42:08.566Z,79.10
2022-09-21T01:44:41.543Z,79.26
2022-09-21T01:47:14.104Z,79.19
2022-09-21T01:49:47.319Z,79.93
2022-09-21T01:52:20.577Z,79.76
2022-09-21T01:54:53.037Z,79.85
2022-09-21T01:57:28.025Z,79.44
2022-09-21T02:00:00.000Z,79.49
2022-09-21T02:02:35.607Z,79.33
2022-09-21T02:05:05.827Z,79.34
2022-09-21T02:07:35.584Z,79.25
2022-09-21T02:10:05.266Z,79.54
2022-09-21T02:12:33.807Z,79.21
2022-09-21T02:15:04.706Z,79.31
2022-09-21T02:17:41.165Z,79.26
2022-09-21T02:20:18.508Z,79.39
2022-09-21T02:22:58.693Z,79.27
2022-09-21T02:25:37.056Z,80.37
2022-09-21T02:28:09.759Z,79.92
2022-09-21T02:30:42.386Z,80.49
2022-09-21T02:33:17.791Z,80.13
2022-09-21T02:35:51.069Z,80.18
2022-09-21T02:38:26.850Z,80.56
2022-09-21T02:41:03.878Z,80.03
2022-09-21T02:43:38.439Z,80.64
2022-09-21T02:46:11.717Z,80.41
2022-09-21T02:48:45.332Z,80.53
2022-09-21T02:51:18.563Z,80.32
2022-09-21T02:53:49.367Z,80.22
2022-09-21T02:56:18.665Z,79.81
2022-09-21T02:58:51.701Z,79.71
2022-09-21T03:01:23.709Z,79.03
2022-09-21T03:03:52.039Z,79.73
2022-09-21T03:06:20.526Z,79.78
2022-09-21T03:08:48.992Z,79.40
2022-09-21T03:11:18.164Z,79.89
2022-09-21T03:13:47.198Z,80.20
2022-09-21T03:16:16.496Z,80.16
2022-09-21T03:18:46.595Z,80.47
2022-09-21T03:21:15.264Z,80.58
2022-09-21T03:23:43.604Z,80.54
2022-09-21T03:26:12.265Z,79.80
2022-09-21T03:28:40.682Z,79.73
2022-09-21T03:31:09.126Z,79.78
2022-09-21T03:33:37.578Z,79.29
2022-09-21T03:36:07.826Z,79.36
2022-09-21T03:38:36.423Z,79.07
2022-09-21T03:41:04.875Z,79.02
2022-09-21T03:43:33.475Z,79.33
2022-09-21T03:46:01.825Z,79.40
2022-09-21T03:48:31.048Z,79.44
2022-09-21T03:50:59.497Z,79.32
2022-09-21T03:53:29.261Z,79.99
2022-09-21T03:55:58.855Z,79.83
2022-09-21T03:58:27.352Z,79.76
2022-09-21T04:00:55.744Z,79.99
2022-09-21T04:03:24.131Z,79.45
2022-09-21T04:05:52.472Z,79.24
2022-09-21T04:08:20.831Z,79.60
2022-09-21T04:10:50.762Z,79.45
2022-09-21T04:13:19.149Z,79.37
2022-09-21T04:15:47.539Z,78.85
2022-09-21T04:18:15.911Z,79.30
2022-09-21T04:20:44.216Z,78.90
2022-09-21T04:23:12.879Z,79.58
2022-09-21T04:25:41.944Z,78.90
2022-09-21T04:28:11.705Z,79.10
2022-09-21T04:30:40.338Z,79.39
2022-09-21T04:33:08.792Z,78.83
2022-09-21T04:35:37.399Z,79.07
2022-09-21T04:38:09.107Z,79.63
2022-09-21T04:40:39.141Z,79.95
2022-09-21T04:43:22.563Z,79.51
2022-09-21T04:45:51.826Z,79.63
2022-09-21T04:48:20.191Z,79.56
2022-09-21T04:50:50.478Z,79.74
2022-09-21T04:53:19.058Z,79.77
2022-09-21T04:55:47.578Z,80.00
2022-09-21T04:58:16.110Z,80.07
2022-09-21T05:00:45.811Z,79.98
2022-09-21T05:03:14.296Z,79.95
2022-09-21T05:05:48.091Z,80.32
2022-09-21T05:08:17.281Z,80.33
2022-09-21T05:10:44.837Z,80.18
2022-09-21T05:13:19.646Z,80.56
2022-09-21T05:15:49.572Z,80.77
2022-09-21T05:18:17.956Z,80.69
2022-09-21T05:20:46.433Z,80.46
2022-09-21T05:23:16.787Z,80.62
2022-09-21T05:25:45.251Z,80.74
2022-09-21T05:28:14.226Z,80.63
2022-09-21T05:30:56.248Z,80.10
2022-09-21T05:33:36.906Z,80.72
2022-09-21T05:36:18.244Z,80.94
2022-09-21T05:38:47.150Z,80.67
2022-09-21T05:41:15.943Z,80.78
2022-09-21T05:43:45.505Z,80.24
2022-09-21T05:46:21.113Z,80.26
2022-09-21T05:49:00.058Z,80.41
2022-09-21T05:51:36.524Z,80.06
2022-09-21T05:54:16.498Z,80.15
2022-09-21T05:56:50.045Z,80.28
2022-09-21T05:59:36.859Z,80.50
2022-09-21T06:02:16.103Z,80.35
2022-09-21T06:04:47.343Z,80.54
2022-09-21T06:07:17.431Z,80.34
2022-09-21T06:09:45.792Z,80.66
2022-09-21T06:12:14.684Z,80.88
2022-09-21T06:14:44.127Z,81.00
2022-09-21T06:17:13.351Z,80.95
2022-09-21T06:19:41.713Z,81.30
2022-09-21T06:22:11.471Z,80.88
2022-09-21T06:24:39.835Z,80.81
2022-09-21T06:27:08.210Z,80.09
2022-09-21T06:29:36.550Z,80.59
2022-09-21T06:32:06.219Z,80.38
2022-09-21T06:34:34.530Z,80.26
2022-09-21T06:37:03.176Z,80.53
2022-09-21T06:39:32.874Z,80.95
2022-09-21T06:42:02.207Z,80.50
2022-09-21T06:44:31.000Z,80.88
2022-09-21T06:46:59.306Z,80.79
2022-09-21T06:49:28.730Z,80.26
2022-09-21T06:51:57.321Z,80.52
2022-09-21T06:54:25.692Z,80.79
2022-09-21T06:56:59.831Z,80.12
2022-09-21T06:59:28.726Z,80.45
2022-09-21T07:01:58.523Z,80.14
2022-09-21T07:04:28.458Z,80.10
2022-09-21T07:06:57.740Z,80.12
2022-09-21T07:12:16.190Z,80.10
2022-09-21T07:14:45.643Z,79.77
2022-09-21T07:17:16.141Z,80.21
2022-09-21T07:19:44.487Z,80.02
2022-09-21T07:22:13.134Z,79.96
2022-09-21T07:24:41.448Z,79.80
2022-09-21T07:27:09.976Z,79.67
2022-09-21T07:29:39.706Z,79.79
2022-09-21T07:32:08.008Z,79.97
2022-09-21T07:34:37.908Z,79.33
2022-09-21T07:37:06.376Z,79.15
2022-09-21T07:39:35.577Z,79.40
2022-09-21T07:42:03.893Z,79.83
2022-09-21T07:44:32.280Z,79.41
2022-09-21T07:47:03.371Z,79.04
2022-09-21T07:49:31.783Z,79.38
2022-09-21T07:52:03.829Z,79.18
2022-09-21T07:54:34.508Z,78.62
2022-09-21T07:57:20.400Z,78.51
2022-09-21T07:59:48.946Z,78.26
2022-09-21T08:02:18.642Z,78.18
2022-09-21T08:04:47.145Z,78.05
2022-09-21T08:07:15.827Z,77.85
2022-09-21T08:09:44.397Z,78.31
2022-09-21T08:12:12.924Z,77.88
2022-09-21T08:14:41.658Z,77.88
2022-09-21T08:17:09.937Z,77.83
2022-09-21T08:19:39.648Z,77.71
2022-09-21T08:22:08.349Z,77.90
2022-09-21T08:24:37.654Z,77.34
2022-09-21T08:27:06.337Z,77.57
2022-09-21T08:29:36.215Z,77.64
2022-09-21T08:32:05.088Z,77.46
2022-09-21T08:34:33.411Z,77.15
2022-09-21T08:37:03.122Z,77.06
2022-09-21T08:39:31.549Z,77.33
2022-09-21T08:42:16.031Z,77.24
2022-09-21T08:44:49.526Z,77.10
2022-09-21T08:47:21.411Z,76.82
2022-09-21T08:49:54.486Z,76.69
2022-09-21T08:52:25.914Z,76.77
2022-09-21T08:54:57.753Z,76.87
2022-09-21T08:57:30.650Z,76.80
2022-09-21T09:00:01.569Z,76.98
2022-09-21T09:03:03.434Z,76.70
2022-09-21T09:05:45.862Z,76.56
2022-09-21T09:08:31.708Z,76.51
2022-09-21T09:11:15.551Z,76.25
2022-09-21T09:14:03.418Z,76.10
2022-09-21T09:16:41.454Z,75.76
2022-09-21T09:19:19.765Z,75.34
2022-09-21T09:21:48.118Z,74.87
2022-09-21T09:24:25.296Z,74.37
2022-09-21T09:26:57.931Z,73.81
2022-09-21T09:29:33.302Z,73.71
2022-09-21T09:32:02.870Z,73.26
2022-09-21T09:34:35.912Z,72.80
2022-09-21T09:37:12.206Z,72.19
2022-09-21T09:39:45.235Z,72.02
2022-09-21T09:42:29.516Z,71.65
2022-09-21T09:45:13.789Z,71.98
2022-09-21T09:47:54.437Z,71.97
2022-09-21T09:50:28.619Z,71.68
2022-09-21T09:53:04.977Z,71.55
2022-09-21T09:55:40.176Z,71.36
2022-09-21T09:58:18.244Z,71.28
2022-09-21T10:00:48.064Z,71.05
2022-09-21T10:03:19.387Z,70.34
2022-09-21T10:05:48.090Z,70.22
2022-09-21T10:08:43.106Z,69.12
2022-09-21T10:11:15.361Z,69.45
2022-09-21T10:13:45.099Z,68.95
2022-09-21T10:16:15.895Z,68.70
2022-09-21T10:18:48.611Z,68.23
2022-09-21T10:21:22.699Z,67.92
2022-09-21T10:23:55.095Z,68.05
2022-09-21T10:26:25.112Z,68.29
2022-09-21T10:28:58.987Z,67.98
2022-09-21T10:31:29.995Z,68.01
2022-09-21T10:34:13.714Z,67.19
2022-09-21T10:36:43.569Z,67.55
2022-09-21T10:39:26.844Z,66.70
2022-09-21T10:42:08.812Z,66.38
2022-09-21T10:44:42.382Z,66.08
2022-09-21T10:47:20.185Z,65.52
2022-09-21T10:49:51.370Z,65.57
2022-09-21T10:52:22.733Z,65.40
2022-09-21T10:54:54.906Z,65.55
2022-09-21T10:57:26.654Z,65.45
2022-09-21T10:59:55.111Z,65.40
2022-09-21T11:02:34.894Z,65.06
2022-09-21T11:05:10.738Z,64.73
2022-09-21T11:07:47.707Z,64.39
2022-09-21T11:10:22.249Z,63.87
2022-09-21T11:13:04.002Z,63.17
2022-09-21T11:15:43.681Z,63.19
2022-09-21T11:18:19.984Z,62.97
2022-09-21T11:20:53.082Z,62.80
2022-09-21T11:23:40.363Z,62.07
2022-09-21T11:26:14.006Z,62.40
2022-09-21T11:28:48.930Z,62.30
2022-09-21T11:31:55.667Z,61.29
2022-09-21T11:34:41.056Z,62.41
2022-09-21T11:37:21.015Z,62.43
2022-09-21T11:40:17.598Z,61.64
2022-09-21T11:42:58.105Z,61.81
2022-09-21T11:45:41.809Z,60.63
2022-09-21T11:48:23.304Z,60.16
2022-09-21T11:51:02.513Z,60.15
2022-09-21T11:53:43.859Z,59.89
2022-09-21T11:56:27.034Z,59.63
2022-09-21T11:59:07.042Z,59.83
2022-09-21T12:01:49.440Z,59.42
2022-09-21T12:04:42.617Z,58.82
2022-09-21T12:07:30.329Z,58.70
2022-09-21T12:10:36.669Z,58.27
2022-09-21T12:13:13.274Z,58.79
2022-09-21T12:15:50.058Z,58.34
2022-09-21T12:18:27.400Z,57.95
2022-09-21T12:21:02.747Z,57.97
2022-09-21T12:23:41.643Z,57.51
2022-09-21T12:26:13.199Z,57.57
2022-09-21T12:28:43.897Z,56.99
2022-09-21T12:31:19.848Z,56.67
2022-09-21T12:33:55.250Z,56.32
2022-09-21T12:36:30.728Z,56.14
2022-09-21T12:39:06.592Z,55.75
2022-09-21T12:41:40.984Z,55.67
2022-09-21T12:44:18.669Z,55.28
2022-09-21T12:46:53.621Z,55.18
2022-09-21T12:49:30.416Z,54.89
2022-09-21T12:52:07.105Z,55.08
2022-09-21T12:54:45.463Z,54.47
2022-09-21T12:57:49.318Z,54.38
2022-09-21T13:00:20.627Z,54.67
2022-09-21T13:02:54.945Z,54.18
2022-09-21T13:05:39.982Z,53.03
2022-09-21T13:08:13.476Z,53.68
2022-09-21T13:10:54.660Z,53.21
2022-09-21T13:13:31.724Z,53.11
2022-09-21T13:16:01.976Z,52.98
2022-09-21T13:18:36.238Z,52.81
2022-09-21T13:21:19.395Z,51.77
2022-09-21T13:23:54.755Z,52.09
2022-09-21T13:26:34.669Z,51.46
2022-09-21T13:29:25.822Z,51.67
2022-09-21T13:31:57.652Z,51.46
2022-09-21T13:34:32.303Z,51.29
2022-09-21T13:37:35.270Z,50.28
2022-09-21T13:40:36.050Z,50.40
2022-09-21T13:43:23.620Z,50.28
2022-09-21T13:45:59.181Z,50.53
2022-09-21T13:48:30.870Z,50.58
2022-09-21T13:51:10.178Z,49.83
2022-09-21T13:53:42.282Z,50.16
2022-09-21T13:56:20.560Z,50.08
2022-09-21T13:58:53.138Z,50.03
2022-09-21T14:01:45.894Z,49.76
2022-09-21T14:04:23.742Z,49.27
2022-09-21T14:06:54.236Z,49.65
2022-09-21T14:09:28.437Z,49.08
2022-09-21T14:12:00.206Z,48.86
2022-09-21T14:14:33.013Z,48.42
2022-09-21T14:17:02.531Z,48.37
2022-09-21T14:20:04.591Z,47.63
2022-09-21T14:22:41.422Z,48.27
2022-09-21T14:25:54.499Z,47.55
2022-09-21T14:28:35.525Z,48.31
2022-09-21T14:31:14.182Z,48.46
2022-09-21T14:33:48.148Z,48.27
2022-09-21T14:36:20.763Z,47.77
2022-09-21T14:38:54.969Z,47.84
2022-09-21T14:41:27.165Z,47.82
2022-09-21T14:43:56.824Z,47.84
2022-09-21T14:46:51.452Z,46.58
2022-09-21T14:49:34.878Z,47.29
2022-09-21T14:52:19.040Z,47.39
2022-09-21T14:55:03.205Z,47.38
2022-09-21T14:57:51.339Z,46.67
2022-09-21T15:00:23.319Z,47.21
2022-09-21T15:03:10.041Z,46.69
2022-09-21T15:05:41.528Z,47.01
2022-09-21T15:08:59.745Z,46.19
2022-09-21T15:11:31.688Z,47.01
2022-09-21T15:14:19.991Z,46.51
2022-09-21T15:16:51.009Z,47.13
2022-09-21T15:19:25.006Z,46.81
2022-09-21T15:21:54.926Z,46.65
2022-09-21T15:24:27.851Z,46.47
2022-09-21T15:27:04.104Z,46.34
2022-09-21T15:29:34.882Z,46.40
2022-09-21T15:32:03.980Z,46.24
2022-09-21T15:34:35.328Z,46.25
2022-09-21T15:37:08.632Z,46.03
2022-09-21T15:39:37.164Z,46.07
2022-09-21T15:42:22.749Z,45.86
2022-09-21T15:45:11.188Z,45.96
2022-09-21T15:47:42.182Z,46.31
2022-09-21T15:50:14.627Z,46.49
2022-09-21T15:52:49.304Z,46.79
2022-09-21T15:55:21.543Z,46.89
2022-09-21T15:57:51.761Z,47.14
2022-09-21T16:00:26.862Z,47.42
2022-09-21T16:03:05.997Z,47.74
2022-09-21T16:05:44.089Z,48.04
2022-09-21T16:08:28.624Z,48.22
2022-09-21T16:11:27.014Z,48.48
2022-09-21T16:14:23.553Z,48.91
2022-09-21T16:17:21.660Z,49.27
2022-09-21T16:20:10.483Z,49.61
2022-09-21T16:22:41.111Z,49.26
2022-09-21T16:25:24.747Z,49.79
2022-09-21T16:27:55.976Z,49.96
2022-09-21T16:30:48.766Z,49.97
2022-09-21T16:33:41.064Z,50.20
2022-09-21T16:36:45.581Z,50.52
2022-09-21T16:39:17.199Z,50.79
2022-09-21T16:41:49.383Z,50.61
2022-09-21T16:44:23.008Z,50.98
2022-09-21T16:46:57.716Z,50.96
2022-09-21T16:49:31.237Z,51.13
2022-09-21T16:52:00.368Z,51.33
2022-09-21T16:54:29.189Z,51.33
2022-09-21T16:56:59.803Z,51.77
2022-09-21T16:59:28.906Z,51.98
2022-09-21T17:01:59.091Z,52.14
2022-09-21T17:04:31.946Z,52.01
2022-09-21T17:07:00.815Z,52.27
2022-09-21T17:09:35.031Z,52.44
2022-09-21T17:12:06.212Z,52.40
2022-09-21T17:14:42.967Z,52.46
2022-09-21T17:17:17.595Z,52.68
2022-09-21T17:19:50.037Z,52.96
2022-09-21T17:22:19.318Z,53.18
2022-09-21T17:24:51.813Z,53.04
2022-09-21T17:27:22.687Z,53.25
2022-09-21T17:29:53.740Z,53.77
2022-09-21T17:32:24.250Z,53.46
2022-09-21T17:34:58.686Z,53.70
2022-09-21T17:37:27.199Z,53.77
2022-09-21T17:39:55.634Z,53.91
2022-09-21T17:42:25.790Z,54.29
2022-09-21T17:45:12.453Z,54.54
2022-09-21T17:47:41.994Z,54.70
2022-09-21T17:50:22.950Z,55.05
2022-09-21T17:53:17.898Z,55.33
2022-09-21T17:55:54.420Z,55.47
2022-09-21T17:58:44.544Z,56.10
2022-09-21T18:01:28.337Z,55.99
2022-09-21T18:03:57.542Z,56.37
2022-09-21T18:06:27.878Z,56.55
2022-09-21T18:08:57.419Z,56.88
2022-09-21T18:11:51.094Z,57.06
2022-09-21T18:14:33.035Z,57.28
2022-09-21T18:17:19.990Z,57.60
2022-09-21T18:20:03.719Z,57.76
2022-09-21T18:22:43.009Z,58.49
2022-09-21T18:25:16.379Z,58.76
2022-09-21T18:27:48.591Z,58.96
2022-09-21T18:30:18.614Z,59.26
2022-09-21T18:32:58.993Z,59.73
2022-09-21T18:35:49.845Z,59.97
2022-09-21T18:38:28.403Z,59.22
2022-09-21T18:41:13.332Z,59.12
2022-09-21T18:44:05.171Z,58.95
2022-09-21T18:46:43.443Z,59.08
2022-09-21T18:49:23.800Z,59.75
2022-09-21T18:51:58.719Z,59.99
2022-09-21T18:54:29.711Z,60.29
2022-09-21T18:56:59.210Z,60.69
2022-09-21T18:59:31.707Z,60.64
2022-09-21T19:02:01.123Z,60.66
2022-09-21T19:04:30.140Z,60.81
2022-09-21T19:07:04.366Z,61.01
2022-09-21T19:09:45.471Z,61.07
2022-09-21T19:12:23.900Z,61.07
2022-09-21T19:15:12.321Z,61.14
2022-09-21T19:17:53.521Z,61.26
2022-09-21T19:20:36.191Z,61.75
2022-09-21T19:23:13.317Z,61.86
2022-09-21T19:25:49.474Z,61.87
2022-09-21T19:28:46.800Z,62.44
2022-09-21T19:31:19.479Z,61.98
2022-09-21T19:33:50.724Z,62.00
2022-09-21T19:36:20.475Z,62.08
2022-09-21T19:38:49.311Z,61.84
2022-09-21T19:41:38.156Z,62.50
2022-09-21T19:44:32.554Z,62.25
2022-09-21T19:47:08.900Z,62.84
2022-09-21T19:49:46.699Z,63.04
2022-09-21T19:52:17.948Z,63.05
2022-09-21T19:55:04.668Z,63.04
2022-09-21T19:57:52.824Z,63.28
2022-09-21T20:00:22.777Z,62.93
2022-09-21T20:03:02.537Z,63.25
2022-09-21T20:05:40.232Z,63.21
2022-09-21T20:08:18.197Z,63.55
2022-09-21T20:11:01.830Z,64.06
2022-09-21T20:13:44.968Z,64.02
2022-09-21T20:16:28.652Z,64.50
2022-09-21T20:19:03.783Z,63.96
2022-09-21T20:21:39.435Z,63.65
2022-09-21T20:24:19.219Z,63.88
2022-09-21T20:26:50.766Z,63.56
2022-09-21T20:29:21.857Z,64.05
2022-09-21T20:31:52.273Z,64.31
2022-09-21T20:34:21.495Z,64.70
2022-09-21T20:36:49.924Z,65.40
2022-09-21T20:39:18.239Z,65.13
2022-09-21T20:41:46.568Z,64.75
2022-09-21T20:44:15.436Z,64.91
2022-09-21T20:46:45.123Z,64.87
2022-09-21T20:49:15.307Z,64.69
2022-09-21T20:51:43.665Z,64.38
2022-09-21T20:54:12.212Z,64.35
2022-09-21T20:56:40.873Z,63.91
2022-09-21T20:59:09.379Z,64.16
2022-09-21T21:01:37.786Z,64.68
2022-09-21T21:04:07.636Z,64.92
2022-09-21T21:06:37.692Z,65.25
2022-09-21T21:09:06.102Z,65.28
2022-09-21T21:11:34.557Z,64.52
2022-09-21T21:14:03.567Z,64.69
2022-09-21T21:16:32.189Z,65.60
2022-09-21T21:19:00.851Z,65.15
2022-09-21T21:21:30.633Z,65.46
2022-09-21T21:24:16.518Z,65.96
2022-09-21T21:27:01.160Z,66.17
2022-09-21T21:29:30.712Z,66.50
2022-09-21T21:32:00.025Z,66.12
2022-09-21T21:34:28.894Z,65.46
2022-09-21T21:36:58.982Z,65.03
2022-09-21T21:39:27.383Z,65.79
2022-09-21T21:41:55.707Z,66.18
2022-09-21T21:44:24.138Z,66.52
2022-09-21T21:46:53.342Z,66.77
2022-09-21T21:49:22.156Z,66.92
2022-09-21T21:51:51.028Z,67.34
2022-09-21T21:54:23.311Z,67.21
2022-09-21T21:56:53.622Z,67.22
2022-09-21T21:59:22.382Z,67.41
2022-09-21T22:01:51.018Z,67.02
2022-09-21T22:04:21.645Z,66.80
2022-09-21T22:06:52.813Z,67.30
2022-09-21T22:09:23.174Z,67.44
2022-09-21T22:11:51.515Z,67.43
2022-09-21T22:14:19.865Z,67.21
2022-09-21T22:16:48.220Z,66.99
2022-09-21T22:19:16.604Z,67.20
2022-09-21T22:21:51.728Z,66.89
2022-09-21T22:24:23.701Z,66.47
2022-09-21T22:26:52.041Z,66.31
2022-09-21T22:29:20.329Z,66.87
2022-09-21T22:31:50.247Z,66.71
2022-09-21T22:34:18.961Z,67.11
2022-09-21T22:36:47.304Z,67.34
2022-09-21T22:39:15.621Z,67.54
2022-09-21T22:41:45.308Z,67.53
2022-09-21T22:44:13.961Z,67.28
2022-09-21T22:46:42.428Z,67.02
2022-09-21T22:49:10.722Z,66.95
2022-09-21T22:51:39.040Z,67.44
2022-09-21T22:54:07.755Z,66.85
2022-09-21T22:56:36.674Z,67.32
2022-09-21T22:59:07.054Z,66.98
2022-09-21T23:01:37.403Z,66.73
2022-09-21T23:04:08.065Z,66.88
2022-09-21T23:06:39.075Z,67.22
2022-09-21T23:09:09.374Z,67.24
2022-09-21T23:11:41.974Z,67.24
2022-09-21T23:14:12.890Z,67.07
2022-09-21T23:16:41.358Z,67.21
2022-09-21T23:19:15.393Z,67.66
2022-09-21T23:21:45.570Z,67.41
2022-09-21T23:24:14.105Z,67.41
2022-09-21T23:26:43.528Z,67.58
2022-09-21T23:29:15.173Z,67.37
2022-09-21T23:31:45.717Z,66.82
2022-09-21T23:34:16.002Z,67.18
2022-09-21T23:36:45.805Z,67.68
2022-09-21T23:39:15.901Z,67.41
2022-09-21T23:41:44.806Z,67.83
2022-09-21T23:44:14.973Z,67.89
2022-09-21T23:46:43.460Z,67.57
2022-09-21T23:49:11.981Z,68.12
2022-09-21T23:51:40.806Z,67.82
2022-09-21T23:54:09.462Z,68.38
2022-09-21T23:56:37.923Z,68.39
2022-09-21T23:59:06.495Z,68.52
